sensor_id;sensor_type;location;lat;lon;timestamp;pressure;altitude;pressure_sealevel;temperature;humidity
9525;BME280;15940;48.734;9.112;2023-03-11T00:01:41;95466.03;;;0.53;72.46
9525;BME280;15940;48.734;9.112;2023-03-11T00:04:08;95473.72;;;0.60;74.28
9525;BME280;15940;48.734;9.112;2023-03-11T00:06:35;95470.03;;;0.67;74.43
9525;BME280;15940;48.734;9.112;2023-03-11T00:09:04;95468.53;;;0.66;72.37
9525;BME280;15940;48.734;9.112;2023-03-11T00:11:31;95459.50;;;0.63;75.29
9525;BME280;15940;48.734;9.112;2023-03-11T00:13:58;95475.38;;;0.57;75.34
9525;BME280;15940;48.734;9.112;2023-03-11T00:16:25;95476.38;;;0.60;75.01
9525;BME280;15940;48.734;9.112;2023-03-11T00:18:52;95471.81;;;0.61;72.20
9525;BME280;15940;48.734;9.112;2023-03-11T00:21:19;95478.63;;;0.52;73.63
9525;BME280;15940;48.734;9.112;2023-03-11T00:23:46;95485.41;;;0.53;74.43
9525;BME280;15940;48.734;9.112;2023-03-11T00:26:14;95480.38;;;0.55;74.07
9525;BME280;15940;48.734;9.112;2023-03-11T00:28:41;95487.63;;;0.64;73.61
9525;BME280;15940;48.734;9.112;2023-03-11T00:31:11;95489.84;;;0.66;74.09
9525;BME280;15940;48.734;9.112;2023-03-11T00:33:38;95491.75;;;0.74;75.14
9525;BME280;15940;48.734;9.112;2023-03-11T00:36:06;95483.03;;;0.65;73.21
9525;BME280;15940;48.734;9.112;2023-03-11T00:38:33;95473.41;;;0.76;75.76
9525;BME280;15940;48.734;9.112;2023-03-11T00:41:00;95481.72;;;0.69;74.63
9525;BME280;15940;48.734;9.112;2023-03-11T00:43:28;95494.59;;;0.71;74.59
9525;BME280;15940;48.734;9.112;2023-03-11T00:45:55;95500.63;;;0.80;75.14
9525;BME280;15940;48.734;9.112;2023-03-11T00:48:22;95500.00;;;0.95;75.12
9525;BME280;15940;48.734;9.112;2023-03-11T00:50:49;95499.88;;;0.89;73.57
9525;BME280;15940;48.734;9.112;2023-03-11T00:53:16;95492.16;;;0.91;72.31
9525;BME280;15940;48.734;9.112;2023-03-11T00:55:43;95502.50;;;1.07;75.18
9525;BME280;15940;48.734;9.112;2023-03-11T00:58:10;95498.34;;;1.06;74.64
9525;BME280;15940;48.734;9.112;2023-03-11T01:00:39;95505.03;;;1.02;73.02
9525;BME280;15940;48.734;9.112;2023-03-11T01:03:06;95520.00;;;1.41;76.76
9525;BME280;15940;48.734;9.112;2023-03-11T01:05:33;95523.59;;;1.29;72.15
9525;BME280;15940;48.734;9.112;2023-03-11T01:08:02;95514.03;;;1.13;72.64
9525;BME280;15940;48.734;9.112;2023-03-11T01:10:30;95519.91;;;1.27;75.90
9525;BME280;15940;48.734;9.112;2023-03-11T01:12:57;95513.13;;;1.26;74.66
9525;BME280;15940;48.734;9.112;2023-03-11T01:15:28;95527.00;;;1.30;75.88
9525;BME280;15940;48.734;9.112;2023-03-11T01:17:56;95525.75;;;1.16;73.41
9525;BME280;15940;48.734;9.112;2023-03-11T01:20:23;95524.56;;;1.08;73.56
9525;BME280;15940;48.734;9.112;2023-03-11T01:22:50;95521.03;;;0.93;73.85
9525;BME280;15940;48.734;9.112;2023-03-11T01:25:21;95517.19;;;0.84;73.79
9525;BME280;15940;48.734;9.112;2023-03-11T01:27:48;95516.63;;;0.71;73.43
9525;BME280;15940;48.734;9.112;2023-03-11T01:30:19;95528.63;;;0.76;75.06
9525;BME280;15940;48.734;9.112;2023-03-11T01:32:46;95525.97;;;0.76;76.42
9525;BME280;15940;48.734;9.112;2023-03-11T01:35:18;95527.47;;;0.68;72.86
9525;BME280;15940;48.734;9.112;2023-03-11T01:37:45;95525.53;;;0.41;70.98
9525;BME280;15940;48.734;9.112;2023-03-11T01:40:17;95519.59;;;0.46;71.99
9525;BME280;15940;48.734;9.112;2023-03-11T01:42:44;95532.34;;;0.33;71.57
9525;BME280;15940;48.734;9.112;2023-03-11T01:45:41;95516.81;;;0.22;72.00
9525;BME280;15940;48.734;9.112;2023-03-11T01:48:09;95535.28;;;0.25;71.28
9525;BME280;15940;48.734;9.112;2023-03-11T01:50:41;95514.44;;;0.24;71.30
9525;BME280;15940;48.734;9.112;2023-03-11T01:53:09;95523.44;;;0.17;72.25
9525;BME280;15940;48.734;9.112;2023-03-11T01:55:36;95517.25;;;0.11;71.91
9525;BME280;15940;48.734;9.112;2023-03-11T01:58:07;95521.38;;;0.12;71.99
9525;BME280;15940;48.734;9.112;2023-03-11T02:00:36;95516.34;;;0.05;71.61
9525;BME280;15940;48.734;9.112;2023-03-11T02:03:08;95521.53;;;0.18;73.94
9525;BME280;15940;48.734;9.112;2023-03-11T02:05:39;95513.88;;;0.38;74.15
9525;BME280;15940;48.734;9.112;2023-03-11T02:08:07;95524.63;;;0.25;71.49
9525;BME280;15940;48.734;9.112;2023-03-11T02:10:36;95518.88;;;0.27;71.63
9525;BME280;15940;48.734;9.112;2023-03-11T02:13:03;95525.66;;;0.19;70.69
9525;BME280;15940;48.734;9.112;2023-03-11T02:15:30;95548.47;;;0.29;72.49
9525;BME280;15940;48.734;9.112;2023-03-11T02:17:57;95544.75;;;0.26;71.29
9525;BME280;15940;48.734;9.112;2023-03-11T02:20:35;95533.81;;;0.24;71.61
9525;BME280;15940;48.734;9.112;2023-03-11T02:23:07;95535.28;;;0.16;71.11
9525;BME280;15940;48.734;9.112;2023-03-11T02:25:40;95531.88;;;0.16;70.71
9525;BME280;15940;48.734;9.112;2023-03-11T02:28:12;95530.56;;;0.20;72.65
9525;BME280;15940;48.734;9.112;2023-03-11T02:30:42;95532.47;;;0.11;71.44
9525;BME280;15940;48.734;9.112;2023-03-11T02:33:09;95529.34;;;0.03;73.24
9525;BME280;15940;48.734;9.112;2023-03-11T02:35:38;95539.53;;;-0.05;74.29
9525;BME280;15940;48.734;9.112;2023-03-11T02:38:04;95549.59;;;-0.09;72.25
9525;BME280;15940;48.734;9.112;2023-03-11T02:40:54;95554.00;;;-0.15;70.69
9525;BME280;15940;48.734;9.112;2023-03-11T02:43:30;95560.78;;;-0.23;70.05
9525;BME280;15940;48.734;9.112;2023-03-11T02:46:00;95566.25;;;-0.26;73.24
9525;BME280;15940;48.734;9.112;2023-03-11T02:48:28;95580.47;;;-0.11;71.11
9525;BME280;15940;48.734;9.112;2023-03-11T02:50:56;95587.38;;;-0.23;71.52
9525;BME280;15940;48.734;9.112;2023-03-11T02:53:26;95578.81;;;-0.27;70.27
9525;BME280;15940;48.734;9.112;2023-03-11T02:55:54;95557.06;;;-0.35;69.15
9525;BME280;15940;48.734;9.112;2023-03-11T02:58:21;95564.16;;;-0.32;70.53
9525;BME280;15940;48.734;9.112;2023-03-11T03:00:49;95561.59;;;-0.44;70.24
9525;BME280;15940;48.734;9.112;2023-03-11T03:03:16;95582.41;;;-0.52;72.60
9525;BME280;15940;48.734;9.112;2023-03-11T03:05:43;95577.91;;;-0.64;70.64
9525;BME280;15940;48.734;9.112;2023-03-11T03:08:10;95585.25;;;-0.46;73.20
9525;BME280;15940;48.734;9.112;2023-03-11T03:10:37;95581.53;;;-0.49;70.66
9525;BME280;15940;48.734;9.112;2023-03-11T03:13:04;95577.41;;;-0.41;74.26
9525;BME280;15940;48.734;9.112;2023-03-11T03:15:31;95586.53;;;-0.51;72.29
9525;BME280;15940;48.734;9.112;2023-03-11T03:17:59;95586.88;;;-0.71;70.75
9525;BME280;15940;48.734;9.112;2023-03-11T03:20:26;95589.50;;;-0.80;71.58
9525;BME280;15940;48.734;9.112;2023-03-11T03:22:53;95585.22;;;-0.77;73.13
9525;BME280;15940;48.734;9.112;2023-03-11T03:25:20;95585.72;;;-0.70;73.35
9525;BME280;15940;48.734;9.112;2023-03-11T03:27:48;95579.78;;;-0.74;73.11
9525;BME280;15940;48.734;9.112;2023-03-11T03:30:15;95579.75;;;-0.83;71.64
9525;BME280;15940;48.734;9.112;2023-03-11T03:32:42;95578.38;;;-0.88;74.92
9525;BME280;15940;48.734;9.112;2023-03-11T03:35:11;95581.28;;;-0.73;76.72
9525;BME280;15940;48.734;9.112;2023-03-11T03:37:38;95585.91;;;-0.86;75.61
9525;BME280;15940;48.734;9.112;2023-03-11T03:40:07;95589.16;;;-0.60;76.88
9525;BME280;15940;48.734;9.112;2023-03-11T03:42:34;95595.13;;;-0.78;72.36
9525;BME280;15940;48.734;9.112;2023-03-11T03:45:03;95597.13;;;-0.91;74.61
9525;BME280;15940;48.734;9.112;2023-03-11T03:47:31;95604.22;;;-0.88;76.38
9525;BME280;15940;48.734;9.112;2023-03-11T03:49:58;95607.06;;;-0.82;76.96
9525;BME280;15940;48.734;9.112;2023-03-11T03:52:26;95606.28;;;-0.61;76.46
9525;BME280;15940;48.734;9.112;2023-03-11T03:54:53;95622.06;;;-0.89;73.00
9525;BME280;15940;48.734;9.112;2023-03-11T03:57:20;95618.91;;;-0.96;72.66
9525;BME280;15940;48.734;9.112;2023-03-11T03:59:47;95618.78;;;-1.15;73.40
9525;BME280;15940;48.734;9.112;2023-03-11T04:02:14;95623.06;;;-1.17;74.65
9525;BME280;15940;48.734;9.112;2023-03-11T04:04:41;95613.91;;;-1.16;75.73
9525;BME280;15940;48.734;9.112;2023-03-11T04:07:08;95623.13;;;-1.08;78.15
9525;BME280;15940;48.734;9.112;2023-03-11T04:09:38;95624.22;;;-1.18;74.01
9525;BME280;15940;48.734;9.112;2023-03-11T04:12:05;95621.03;;;-1.13;74.16
9525;BME280;15940;48.734;9.112;2023-03-11T04:14:32;95631.72;;;-1.04;75.07
9525;BME280;15940;48.734;9.112;2023-03-11T04:16:59;95635.88;;;-1.03;76.90
9525;BME280;15940;48.734;9.112;2023-03-11T04:19:26;95640.31;;;-0.78;75.36
9525;BME280;15940;48.734;9.112;2023-03-11T04:21:53;95641.25;;;-0.72;76.38
9525;BME280;15940;48.734;9.112;2023-03-11T04:24:20;95632.91;;;-0.83;76.15
9525;BME280;15940;48.734;9.112;2023-03-11T04:26:48;95632.03;;;-0.80;74.67
9525;BME280;15940;48.734;9.112;2023-03-11T04:29:15;95630.56;;;-1.03;73.58
9525;BME280;15940;48.734;9.112;2023-03-11T04:31:42;95632.47;;;-1.03;74.92
9525;BME280;15940;48.734;9.112;2023-03-11T04:34:09;95628.88;;;-1.09;76.70
9525;BME280;15940;48.734;9.112;2023-03-11T04:36:36;95624.44;;;-1.12;75.61
9525;BME280;15940;48.734;9.112;2023-03-11T04:39:03;95619.50;;;-1.23;77.78
9525;BME280;15940;48.734;9.112;2023-03-11T04:41:30;95635.09;;;-1.25;75.74
9525;BME280;15940;48.734;9.112;2023-03-11T04:43:59;95628.56;;;-1.11;78.86
9525;BME280;15940;48.734;9.112;2023-03-11T04:46:26;95625.84;;;-0.99;75.20
9525;BME280;15940;48.734;9.112;2023-03-11T04:48:53;95631.31;;;-1.02;77.69
9525;BME280;15940;48.734;9.112;2023-03-11T04:51:20;95641.03;;;-0.77;78.05
9525;BME280;15940;48.734;9.112;2023-03-11T04:53:47;95633.88;;;-0.90;74.06
9525;BME280;15940;48.734;9.112;2023-03-11T04:56:13;95635.88;;;-1.03;74.78
9525;BME280;15940;48.734;9.112;2023-03-11T04:58:40;95631.84;;;-1.07;76.61
9525;BME280;15940;48.734;9.112;2023-03-11T05:01:09;95633.38;;;-1.19;76.41
9525;BME280;15940;48.734;9.112;2023-03-11T05:03:35;95638.91;;;-0.92;78.41
9525;BME280;15940;48.734;9.112;2023-03-11T05:06:03;95636.72;;;-1.06;76.28
9525;BME280;15940;48.734;9.112;2023-03-11T05:08:30;95636.50;;;-1.33;75.06
9525;BME280;15940;48.734;9.112;2023-03-11T05:10:57;95634.44;;;-1.51;75.07
9525;BME280;15940;48.734;9.112;2023-03-11T05:13:24;95642.94;;;-1.56;75.54
9525;BME280;15940;48.734;9.112;2023-03-11T05:15:51;95644.72;;;-1.53;77.15
9525;BME280;15940;48.734;9.112;2023-03-11T05:18:19;95654.09;;;-1.49;76.31
9525;BME280;15940;48.734;9.112;2023-03-11T05:20:46;95643.56;;;-1.52;75.99
9525;BME280;15940;48.734;9.112;2023-03-11T05:23:13;95646.13;;;-1.49;79.37
9525;BME280;15940;48.734;9.112;2023-03-11T05:25:40;95649.59;;;-1.52;76.44
9525;BME280;15940;48.734;9.112;2023-03-11T05:28:07;95652.69;;;-1.53;77.06
9525;BME280;15940;48.734;9.112;2023-03-11T05:30:34;95655.13;;;-1.46;76.02
9525;BME280;15940;48.734;9.112;2023-03-11T05:33:01;95663.84;;;-1.46;77.21
9525;BME280;15940;48.734;9.112;2023-03-11T05:35:29;95666.41;;;-1.42;78.62
9525;BME280;15940;48.734;9.112;2023-03-11T05:37:56;95662.13;;;-1.05;79.37
9525;BME280;15940;48.734;9.112;2023-03-11T05:40:23;95669.47;;;-1.09;76.73
9525;BME280;15940;48.734;9.112;2023-03-11T05:42:50;95675.91;;;-0.97;78.48
9525;BME280;15940;48.734;9.112;2023-03-11T05:45:17;95678.41;;;-0.81;77.32
9525;BME280;15940;48.734;9.112;2023-03-11T05:47:44;95672.16;;;-0.87;76.46
9525;BME280;15940;48.734;9.112;2023-03-11T05:50:12;95665.53;;;-0.82;77.77
9525;BME280;15940;48.734;9.112;2023-03-11T05:52:41;95672.72;;;-0.70;76.29
9525;BME280;15940;48.734;9.112;2023-03-11T05:55:09;95663.50;;;-0.78;76.37
9525;BME280;15940;48.734;9.112;2023-03-11T05:57:39;95672.09;;;-0.74;75.51
9525;BME280;15940;48.734;9.112;2023-03-11T06:00:08;95672.03;;;-0.62;75.50
9525;BME280;15940;48.734;9.112;2023-03-11T06:02:38;95673.22;;;-0.84;76.00
9525;BME280;15940;48.734;9.112;2023-03-11T06:05:07;95665.47;;;-0.92;74.23
9525;BME280;15940;48.734;9.112;2023-03-11T06:07:34;95678.25;;;-0.77;77.38
9525;BME280;15940;48.734;9.112;2023-03-11T06:10:04;95681.19;;;-0.84;76.17
9525;BME280;15940;48.734;9.112;2023-03-11T06:12:33;95681.47;;;-1.04;76.52
9525;BME280;15940;48.734;9.112;2023-03-11T06:15:00;95675.38;;;-0.92;76.27
9525;BME280;15940;48.734;9.112;2023-03-11T06:17:27;95687.34;;;-1.09;73.60
9525;BME280;15940;48.734;9.112;2023-03-11T06:19:54;95679.28;;;-0.84;77.03
9525;BME280;15940;48.734;9.112;2023-03-11T06:22:21;95677.16;;;-0.67;76.01
9525;BME280;15940;48.734;9.112;2023-03-11T06:24:48;95679.41;;;-0.66;75.85
9525;BME280;15940;48.734;9.112;2023-03-11T06:27:16;95679.19;;;-0.49;76.21
9525;BME280;15940;48.734;9.112;2023-03-11T06:29:43;95684.66;;;-0.22;75.86
9525;BME280;15940;48.734;9.112;2023-03-11T06:32:10;95696.22;;;-0.16;75.64
9525;BME280;15940;48.734;9.112;2023-03-11T06:34:36;95695.78;;;-0.14;74.51
9525;BME280;15940;48.734;9.112;2023-03-11T06:37:03;95692.69;;;-0.13;74.72
9525;BME280;15940;48.734;9.112;2023-03-11T06:39:30;95708.50;;;-0.18;71.81
9525;BME280;15940;48.734;9.112;2023-03-11T06:41:57;95719.59;;;-0.42;71.44
9525;BME280;15940;48.734;9.112;2023-03-11T06:44:25;95707.94;;;-0.57;72.60
9525;BME280;15940;48.734;9.112;2023-03-11T06:46:52;95723.66;;;-0.28;74.03
9525;BME280;15940;48.734;9.112;2023-03-11T06:49:19;95725.22;;;-0.18;74.46
9525;BME280;15940;48.734;9.112;2023-03-11T06:51:46;95730.09;;;-0.38;72.39
9525;BME280;15940;48.734;9.112;2023-03-11T06:54:13;95734.88;;;-0.33;73.94
9525;BME280;15940;48.734;9.112;2023-03-11T06:56:40;95733.00;;;-0.45;71.80
9525;BME280;15940;48.734;9.112;2023-03-11T06:59:07;95739.06;;;-0.45;72.71
9525;BME280;15940;48.734;9.112;2023-03-11T07:01:35;95746.75;;;-0.47;71.88
9525;BME280;15940;48.734;9.112;2023-03-11T07:04:02;95741.28;;;-0.21;71.92
9525;BME280;15940;48.734;9.112;2023-03-11T07:06:29;95745.31;;;-0.17;72.29
9525;BME280;15940;48.734;9.112;2023-03-11T07:08:56;95742.16;;;0.07;70.26
9525;BME280;15940;48.734;9.112;2023-03-11T07:11:25;95739.91;;;0.27;72.45
9525;BME280;15940;48.734;9.112;2023-03-11T07:13:54;95749.66;;;0.61;72.67
9525;BME280;15940;48.734;9.112;2023-03-11T07:16:22;95748.06;;;0.82;69.19
9525;BME280;15940;48.734;9.112;2023-03-11T07:18:54;95768.22;;;0.92;66.91
9525;BME280;15940;48.734;9.112;2023-03-11T07:21:22;95763.50;;;0.96;67.25
9525;BME280;15940;48.734;9.112;2023-03-11T07:23:52;95753.72;;;0.93;66.67
9525;BME280;15940;48.734;9.112;2023-03-11T07:26:19;95751.66;;;0.97;68.74
9525;BME280;15940;48.734;9.112;2023-03-11T07:28:46;95764.84;;;1.19;68.13
9525;BME280;15940;48.734;9.112;2023-03-11T07:31:16;95760.84;;;1.42;67.94
9525;BME280;15940;48.734;9.112;2023-03-11T07:33:44;95758.63;;;1.31;68.38
9525;BME280;15940;48.734;9.112;2023-03-11T07:36:15;95766.63;;;1.40;65.08
9525;BME280;15940;48.734;9.112;2023-03-11T07:38:43;95773.91;;;1.58;64.60
9525;BME280;15940;48.734;9.112;2023-03-11T07:41:11;95772.72;;;1.59;63.80
9525;BME280;15940;48.734;9.112;2023-03-11T07:43:40;95776.53;;;1.95;62.72
9525;BME280;15940;48.734;9.112;2023-03-11T07:46:11;95775.66;;;1.89;62.34
9525;BME280;15940;48.734;9.112;2023-03-11T07:48:39;95773.84;;;2.13;61.00
9525;BME280;15940;48.734;9.112;2023-03-11T07:51:10;95781.06;;;2.64;62.77
9525;BME280;15940;48.734;9.112;2023-03-11T07:53:39;95781.94;;;3.27;61.48
9525;BME280;15940;48.734;9.112;2023-03-11T07:56:07;95787.22;;;3.60;61.52
9525;BME280;15940;48.734;9.112;2023-03-11T07:58:35;95784.34;;;3.79;57.55
9525;BME280;15940;48.734;9.112;2023-03-11T08:01:04;95791.75;;;3.84;56.84
9525;BME280;15940;48.734;9.112;2023-03-11T08:03:31;95794.38;;;3.30;58.96
9525;BME280;15940;48.734;9.112;2023-03-11T08:05:59;95794.84;;;3.53;57.66
9525;BME280;15940;48.734;9.112;2023-03-11T08:08:26;95805.03;;;3.63;59.21
9525;BME280;15940;48.734;9.112;2023-03-11T08:10:54;95794.44;;;3.84;59.73
9525;BME280;15940;48.734;9.112;2023-03-11T08:13:21;95788.84;;;4.11;57.76
9525;BME280;15940;48.734;9.112;2023-03-11T08:15:48;95783.81;;;4.34;56.34
9525;BME280;15940;48.734;9.112;2023-03-11T08:18:15;95799.94;;;4.19;55.94
9525;BME280;15940;48.734;9.112;2023-03-11T08:20:42;95806.19;;;4.30;54.53
9525;BME280;15940;48.734;9.112;2023-03-11T08:23:10;95804.56;;;4.18;55.52
9525;BME280;15940;48.734;9.112;2023-03-11T08:25:38;95804.63;;;4.39;56.99
9525;BME280;15940;48.734;9.112;2023-03-11T08:28:07;95803.22;;;4.58;55.78
9525;BME280;15940;48.734;9.112;2023-03-11T08:30:34;95815.63;;;4.55;55.96
9525;BME280;15940;48.734;9.112;2023-03-11T08:33:02;95800.63;;;4.64;52.96
9525;BME280;15940;48.734;9.112;2023-03-11T08:35:29;95808.06;;;5.24;54.21
9525;BME280;15940;48.734;9.112;2023-03-11T08:37:56;95809.25;;;5.03;52.63
9525;BME280;15940;48.734;9.112;2023-03-11T08:40:23;95821.72;;;5.41;53.85
9525;BME280;15940;48.734;9.112;2023-03-11T08:42:50;95831.88;;;6.18;51.84
9525;BME280;15940;48.734;9.112;2023-03-11T08:45:18;95819.69;;;5.97;49.79
9525;BME280;15940;48.734;9.112;2023-03-11T08:47:45;95823.56;;;5.96;52.36
9525;BME280;15940;48.734;9.112;2023-03-11T08:50:15;95828.47;;;5.57;52.34
9525;BME280;15940;48.734;9.112;2023-03-11T08:52:42;95823.09;;;5.77;51.97
9525;BME280;15940;48.734;9.112;2023-03-11T08:55:12;95831.28;;;5.88;52.27
9525;BME280;15940;48.734;9.112;2023-03-11T08:57:41;95826.81;;;5.59;48.44
9525;BME280;15940;48.734;9.112;2023-03-11T09:00:11;95834.75;;;6.15;51.91
9525;BME280;15940;48.734;9.112;2023-03-11T09:02:39;95828.47;;;5.97;49.40
9525;BME280;15940;48.734;9.112;2023-03-11T09:05:09;95831.16;;;5.77;51.31
9525;BME280;15940;48.734;9.112;2023-03-11T09:07:36;95822.34;;;5.56;51.54
9525;BME280;15940;48.734;9.112;2023-03-11T09:10:04;95833.63;;;5.20;53.69
9525;BME280;15940;48.734;9.112;2023-03-11T09:12:31;95833.69;;;4.90;54.63
9525;BME280;15940;48.734;9.112;2023-03-11T09:14:58;95832.94;;;5.04;54.47
9525;BME280;15940;48.734;9.112;2023-03-11T09:17:25;95837.28;;;5.02;52.94
9525;BME280;15940;48.734;9.112;2023-03-11T09:19:53;95839.34;;;6.09;51.17
9525;BME280;15940;48.734;9.112;2023-03-11T09:22:20;95836.53;;;6.49;46.98
9525;BME280;15940;48.734;9.112;2023-03-11T09:24:47;95844.84;;;6.46;49.96
9525;BME280;15940;48.734;9.112;2023-03-11T09:27:14;95850.38;;;5.70;50.82
9525;BME280;15940;48.734;9.112;2023-03-11T09:29:41;95859.56;;;5.08;52.86
9525;BME280;15940;48.734;9.112;2023-03-11T09:32:12;95857.50;;;4.53;50.35
9525;BME280;15940;48.734;9.112;2023-03-11T09:34:39;95854.78;;;3.94;52.99
9525;BME280;15940;48.734;9.112;2023-03-11T09:37:07;95850.66;;;3.45;55.19
9525;BME280;15940;48.734;9.112;2023-03-11T09:39:34;95848.41;;;4.06;57.18
9525;BME280;15940;48.734;9.112;2023-03-11T09:42:05;95847.44;;;5.12;50.94
9525;BME280;15940;48.734;9.112;2023-03-11T09:44:41;95844.28;;;6.16;50.72
9525;BME280;15940;48.734;9.112;2023-03-11T09:47:30;95844.53;;;7.01;47.63
9525;BME280;15940;48.734;9.112;2023-03-11T09:50:17;95850.34;;;7.31;43.95
9525;BME280;15940;48.734;9.112;2023-03-11T09:52:57;95847.94;;;7.44;47.26
9525;BME280;15940;48.734;9.112;2023-03-11T09:55:36;95846.94;;;7.90;40.51
9525;BME280;15940;48.734;9.112;2023-03-11T09:58:12;95849.69;;;8.18;43.42
9525;BME280;15940;48.734;9.112;2023-03-11T10:00:41;95842.34;;;8.19;44.80
9525;BME280;15940;48.734;9.112;2023-03-11T10:03:23;95845.28;;;8.21;46.40
9525;BME280;15940;48.734;9.112;2023-03-11T10:05:56;95842.47;;;7.82;44.67
9525;BME280;15940;48.734;9.112;2023-03-11T10:08:33;95844.94;;;7.85;44.04
9525;BME280;15940;48.734;9.112;2023-03-11T10:11:15;95854.56;;;7.97;43.84
9525;BME280;15940;48.734;9.112;2023-03-11T10:13:55;95842.19;;;8.56;41.42
9525;BME280;15940;48.734;9.112;2023-03-11T10:16:35;95846.34;;;8.96;44.11
9525;BME280;15940;48.734;9.112;2023-03-11T10:19:10;95839.13;;;9.49;43.04
9525;BME280;15940;48.734;9.112;2023-03-11T10:21:46;95840.84;;;9.52;42.83
9525;BME280;15940;48.734;9.112;2023-03-11T10:24:46;95845.03;;;8.08;43.85
9525;BME280;15940;48.734;9.112;2023-03-11T10:27:19;95854.81;;;6.71;42.22
9525;BME280;15940;48.734;9.112;2023-03-11T10:29:55;95856.34;;;6.00;44.71
9525;BME280;15940;48.734;9.112;2023-03-11T10:32:33;95862.41;;;5.95;47.79
9525;BME280;15940;48.734;9.112;2023-03-11T10:35:10;95853.78;;;6.95;48.27
9525;BME280;15940;48.734;9.112;2023-03-11T10:37:47;95850.00;;;7.61;47.13
9525;BME280;15940;48.734;9.112;2023-03-11T10:40:25;95847.75;;;8.19;42.24
9525;BME280;15940;48.734;9.112;2023-03-11T10:42:57;95843.56;;;8.18;41.53
9525;BME280;15940;48.734;9.112;2023-03-11T10:45:26;95847.91;;;7.33;37.97
9525;BME280;15940;48.734;9.112;2023-03-11T10:47:55;95845.47;;;7.95;44.16
9525;BME280;15940;48.734;9.112;2023-03-11T10:50:23;95838.19;;;8.29;41.45
9525;BME280;15940;48.734;9.112;2023-03-11T10:53:08;95832.56;;;8.27;41.00
9525;BME280;15940;48.734;9.112;2023-03-11T10:55:45;95835.91;;;7.94;42.81
9525;BME280;15940;48.734;9.112;2023-03-11T10:58:16;95840.88;;;8.29;46.67
9525;BME280;15940;48.734;9.112;2023-03-11T11:00:43;95842.97;;;7.86;43.90
9525;BME280;15940;48.734;9.112;2023-03-11T11:03:22;95850.56;;;7.82;42.91
9525;BME280;15940;48.734;9.112;2023-03-11T11:06:02;95849.38;;;7.94;44.63
9525;BME280;15940;48.734;9.112;2023-03-11T11:08:31;95845.50;;;8.12;46.08
9525;BME280;15940;48.734;9.112;2023-03-11T11:11:02;95857.34;;;7.60;40.08
9525;BME280;15940;48.734;9.112;2023-03-11T11:13:31;95849.19;;;8.09;42.82
9525;BME280;15940;48.734;9.112;2023-03-11T11:16:01;95844.81;;;8.28;43.81
9525;BME280;15940;48.734;9.112;2023-03-11T11:18:33;95852.09;;;8.05;41.55
9525;BME280;15940;48.734;9.112;2023-03-11T11:21:04;95851.06;;;7.86;42.91
9525;BME280;15940;48.734;9.112;2023-03-11T11:23:37;95853.34;;;8.04;43.94
9525;BME280;15940;48.734;9.112;2023-03-11T11:26:18;95850.19;;;7.52;46.69
9525;BME280;15940;48.734;9.112;2023-03-11T11:28:46;95851.28;;;7.23;46.29
9525;BME280;15940;48.734;9.112;2023-03-11T11:31:30;95863.34;;;5.92;44.44
9525;BME280;15940;48.734;9.112;2023-03-11T11:33:57;95857.28;;;5.77;50.08
9525;BME280;15940;48.734;9.112;2023-03-11T11:36:28;95870.19;;;5.52;48.20
9525;BME280;15940;48.734;9.112;2023-03-11T11:38:56;95856.06;;;5.37;48.03
9525;BME280;15940;48.734;9.112;2023-03-11T11:41:27;95862.84;;;5.32;50.18
9525;BME280;15940;48.734;9.112;2023-03-11T11:43:57;95848.56;;;5.06;46.91
9525;BME280;15940;48.734;9.112;2023-03-11T11:46:32;95853.50;;;4.63;44.95
9525;BME280;15940;48.734;9.112;2023-03-11T11:49:07;95840.78;;;5.08;49.33
9525;BME280;15940;48.734;9.112;2023-03-11T11:51:46;95847.63;;;5.09;46.88
9525;BME280;15940;48.734;9.112;2023-03-11T11:54:17;95839.41;;;5.12;43.46
9525;BME280;15940;48.734;9.112;2023-03-11T11:56:46;95842.59;;;5.92;47.80
9525;BME280;15940;48.734;9.112;2023-03-11T11:59:16;95825.88;;;6.61;47.09
9525;BME280;15940;48.734;9.112;2023-03-11T12:01:55;95831.75;;;6.33;42.87
9525;BME280;15940;48.734;9.112;2023-03-11T12:04:37;95838.53;;;5.21;44.93
9525;BME280;15940;48.734;9.112;2023-03-11T12:07:20;95834.44;;;4.91;48.44
9525;BME280;15940;48.734;9.112;2023-03-11T12:09:58;95841.69;;;4.70;49.10
9525;BME280;15940;48.734;9.112;2023-03-11T12:12:35;95830.78;;;4.58;48.79
9525;BME280;15940;48.734;9.112;2023-03-11T12:15:12;95825.63;;;4.40;47.07
9525;BME280;15940;48.734;9.112;2023-03-11T12:17:43;95815.06;;;4.22;47.29
9525;BME280;15940;48.734;9.112;2023-03-11T12:20:16;95820.53;;;4.92;48.65
9525;BME280;15940;48.734;9.112;2023-03-11T12:23:16;95818.53;;;5.63;43.78
9525;BME280;15940;48.734;9.112;2023-03-11T12:26:00;95818.19;;;5.96;43.49
9525;BME280;15940;48.734;9.112;2023-03-11T12:28:39;95813.56;;;6.22;41.13
9525;BME280;15940;48.734;9.112;2023-03-11T12:31:11;95811.03;;;6.39;42.50
9525;BME280;15940;48.734;9.112;2023-03-11T12:33:40;95810.72;;;5.85;42.22
9525;BME280;15940;48.734;9.112;2023-03-11T12:36:22;95805.84;;;5.23;44.48
9525;BME280;15940;48.734;9.112;2023-03-11T12:38:50;95806.09;;;5.04;45.15
9525;BME280;15940;48.734;9.112;2023-03-11T12:41:30;95799.75;;;5.22;47.59
9525;BME280;15940;48.734;9.112;2023-03-11T12:44:02;95803.91;;;5.43;45.54
9525;BME280;15940;48.734;9.112;2023-03-11T12:47:19;95800.16;;;6.02;46.40
9525;BME280;15940;48.734;9.112;2023-03-11T12:49:48;95794.31;;;6.61;43.98
9525;BME280;15940;48.734;9.112;2023-03-11T12:52:27;95799.78;;;7.09;43.74
9525;BME280;15940;48.734;9.112;2023-03-11T12:55:28;95796.66;;;7.22;41.15
9525;BME280;15940;48.734;9.112;2023-03-11T13:01:09;95796.97;;;7.35;40.90
9525;BME280;15940;48.734;9.112;2023-03-11T13:03:47;95806.31;;;7.45;38.11
9525;BME280;15940;48.734;9.112;2023-03-11T13:06:42;95793.03;;;7.31;40.28
9525;BME280;15940;48.734;9.112;2023-03-11T13:09:15;95796.16;;;7.78;38.91
9525;BME280;15940;48.734;9.112;2023-03-11T13:11:44;95784.94;;;8.13;36.74
9525;BME280;15940;48.734;9.112;2023-03-11T13:14:26;95778.38;;;8.36;35.28
9525;BME280;15940;48.734;9.112;2023-03-11T13:17:17;95785.25;;;8.48;39.06
9525;BME280;15940;48.734;9.112;2023-03-11T13:19:52;95793.56;;;8.17;39.42
9525;BME280;15940;48.734;9.112;2023-03-11T13:22:41;95791.56;;;8.06;37.48
9525;BME280;15940;48.734;9.112;2023-03-11T13:25:36;95798.13;;;7.77;37.11
9525;BME280;15940;48.734;9.112;2023-03-11T13:28:39;95803.59;;;8.16;40.39
9525;BME280;15940;48.734;9.112;2023-03-11T13:31:36;95795.75;;;8.29;39.20
9525;BME280;15940;48.734;9.112;2023-03-11T13:34:14;95801.19;;;8.57;38.41
9525;BME280;15940;48.734;9.112;2023-03-11T13:37:08;95797.78;;;8.63;38.01
9525;BME280;15940;48.734;9.112;2023-03-11T13:40:00;95799.97;;;8.86;38.76